Amsterdam Airport Schiphol

Airport
ICAO code: 
EHAM
IATA Code: 
AMS
Summary
ICAO Region: 
EUR
Territory: 
Location: 
Haarlemmermeer, Noord-Holland
Serving: 
Amsterdam
Elevation: 
-11 ft
Coordinates: 
Aerial View: 
52° 18' 31.007" N, 4° 45' 50" E
Airport BS: 
Bird Strike
Airport LOS: 
Parallel Runway Operation
Metar
Observation
EHAM 050225Z 16010KT 9999 -RADZ FEW007 BKN016 BKN040 04/03 Q0995 TEMPO 7000
Station
Amsterdam Airport Schiphol
Date/Time
2021-12-05 02:25:00
Wind direction
160°
Wind speed
10 kts
Lowest cloud amount
few clouds
Temperature
4°C
Dew point
3°C
Humidity
93%
QNH
995 hPa
Weather condition
drizzle

Amsterdam Airport Schiphol is the Netherlands' main international airport, located 4.9 nm southwest of Amsterdam, in the municipality of Haarlemmermeer. The airport used to have the IATA code of SPL, which has fallen into disuse and has been replaced by AMS.

Climatology

Temperate Marine climate/Oceanic climate (Köppen climate classification Cfb). Moderately cool summer and comparatively warm winter with a temperature range of only 14°C. Prevailing south-westerly winds from the Atlantic Ocean.

Runways

Designator Length Width Surface Rops
4/22 2014 45 ASP Yes/Yes
18C/36C 3300 45 ASP Yes/Yes
18L/36R 3400 45 ASP Yes/Yes
9/27 3453 45 ASP Yes/Yes
6/24 3500 45 ASP Yes/Yes
18R/36L 3800 60 ASP Yes/Yes

SKYbrary Partners:

Safety knowledge contributed by: